createdAt,value
2023-04-09T00:00:36.817Z,10.60
2023-04-09T00:01:38.723Z,10.60
2023-04-09T00:02:41.116Z,10.60
2023-04-09T00:03:45.454Z,10.60
2023-04-09T00:04:47.314Z,10.60
2023-04-09T00:05:49.091Z,10.70
2023-04-09T00:06:51.075Z,10.70
2023-04-09T00:07:52.941Z,10.70
2023-04-09T00:08:54.821Z,10.70
2023-04-09T00:09:56.662Z,10.70
2023-04-09T00:10:59.383Z,10.70
2023-04-09T00:12:03.450Z,10.70
2023-04-09T00:13:05.334Z,10.70
2023-04-09T00:14:07.500Z,10.70
2023-04-09T00:15:15.012Z,10.70
2023-04-09T00:16:19.666Z,10.70
2023-04-09T00:17:21.626Z,10.70
2023-04-09T00:18:23.576Z,10.70
2023-04-09T00:19:25.331Z,10.70
2023-04-09T00:20:27.252Z,10.70
2023-04-09T00:21:29.002Z,10.70
2023-04-09T00:22:31.179Z,10.70
2023-04-09T00:23:32.976Z,10.70
2023-04-09T00:24:34.716Z,10.70
2023-04-09T00:25:37.043Z,10.70
2023-04-09T00:26:38.977Z,10.70
2023-04-09T00:27:41.009Z,10.70
2023-04-09T00:28:42.884Z,10.70
2023-04-09T00:29:44.631Z,10.70
2023-04-09T00:30:47.889Z,10.70
2023-04-09T00:31:49.756Z,10.60
2023-04-09T00:32:51.572Z,10.70
2023-04-09T00:33:53.395Z,10.70
2023-04-09T00:34:55.656Z,10.70
2023-04-09T00:36:00.272Z,10.70
2023-04-09T00:37:02.172Z,10.70
2023-04-09T00:38:03.923Z,10.70
2023-04-09T00:39:06.092Z,10.70
2023-04-09T00:40:08.676Z,10.70
2023-04-09T00:41:12.096Z,10.70
2023-04-09T00:42:13.814Z,10.70
2023-04-09T00:43:16.214Z,10.70
2023-04-09T00:44:18.013Z,10.70
2023-04-09T00:45:19.839Z,10.70
2023-04-09T00:46:21.748Z,10.70
2023-04-09T00:47:23.720Z,10.70
2023-04-09T00:48:25.791Z,10.70
2023-04-09T00:49:27.879Z,10.70
2023-04-09T00:50:29.665Z,10.70
2023-04-09T00:51:31.627Z,10.70
2023-04-09T00:52:33.796Z,10.70
2023-04-09T00:53:35.705Z,10.70
2023-04-09T00:54:37.767Z,10.70
2023-04-09T00:55:41.478Z,10.70
2023-04-09T00:56:45.636Z,10.70
2023-04-09T00:57:47.633Z,10.70
2023-04-09T00:58:49.910Z,10.70
2023-04-09T00:59:51.924Z,10.70
2023-04-09T01:00:54.614Z,10.70
2023-04-09T01:01:57.604Z,10.70
2023-04-09T01:03:01.034Z,10.70
2023-04-09T01:04:03.641Z,10.70
2023-04-09T01:05:06.318Z,10.70
2023-04-09T01:06:17.960Z,10.70
2023-04-09T01:07:47.482Z,10.70
2023-04-09T01:09:00.458Z,10.70
2023-04-09T01:10:24.393Z,10.70
2023-04-09T01:11:38.712Z,10.70
2023-04-09T01:13:26.984Z,10.70
2023-04-09T01:14:38.958Z,10.60
2023-04-09T01:15:49.425Z,10.60
2023-04-09T01:17:03.304Z,10.60
2023-04-09T01:18:21.735Z,10.60
2023-04-09T01:19:42.670Z,10.60
2023-04-09T01:20:58.056Z,10.60
2023-04-09T01:22:02.337Z,10.50
2023-04-09T01:23:29.686Z,10.50
2023-04-09T01:24:57.126Z,10.50
2023-04-09T01:26:34.022Z,10.50
2023-04-09T01:28:16.596Z,10.40
2023-04-09T01:29:21.580Z,10.50
2023-04-09T01:30:23.578Z,10.40
2023-04-09T01:31:30.922Z,10.50
2023-04-09T01:32:37.150Z,10.50
2023-04-09T01:33:41.004Z,10.50
2023-04-09T01:34:44.988Z,10.50
2023-04-09T01:35:49.699Z,10.50
2023-04-09T01:36:58.400Z,10.50
2023-04-09T01:38:01.504Z,10.50
2023-04-09T01:39:05.277Z,10.50
2023-04-09T01:40:08.394Z,10.50
2023-04-09T01:41:14.939Z,10.50
2023-04-09T01:42:17.898Z,10.50
2023-04-09T01:43:20.661Z,10.50
2023-04-09T01:44:24.589Z,10.50
2023-04-09T01:45:26.942Z,10.50
2023-04-09T01:46:29.984Z,10.50
2023-04-09T01:47:33.105Z,10.50
2023-04-09T01:48:36.595Z,10.50
2023-04-09T01:49:39.744Z,10.50
2023-04-09T01:50:42.197Z,10.50
2023-04-09T01:51:44.489Z,10.50
2023-04-09T01:52:46.504Z,10.50
2023-04-09T01:53:49.930Z,10.50
2023-04-09T01:54:51.960Z,10.50
2023-04-09T01:55:55.381Z,10.60
2023-04-09T01:56:57.869Z,10.60
2023-04-09T01:57:59.933Z,10.60
2023-04-09T01:59:01.852Z,10.60
2023-04-09T02:00:05.582Z,10.50
2023-04-09T02:01:27.703Z,10.60
2023-04-09T02:02:46.681Z,10.60
2023-04-09T02:03:58.862Z,10.50
2023-04-09T02:05:05.320Z,10.50
2023-04-09T02:06:17.131Z,10.50
2023-04-09T02:07:27.780Z,10.50
2023-04-09T02:08:31.152Z,10.50
2023-04-09T02:09:36.492Z,10.50
2023-04-09T02:10:40.554Z,10.50
2023-04-09T02:11:44.584Z,10.50
2023-04-09T02:12:52.430Z,10.50
2023-04-09T02:13:55.821Z,10.50
2023-04-09T02:15:01.034Z,10.50
2023-04-09T02:16:04.396Z,10.50
2023-04-09T02:17:06.508Z,10.50
2023-04-09T02:18:21.953Z,10.50
2023-04-09T02:19:23.894Z,10.50
2023-04-09T02:20:25.804Z,10.40
2023-04-09T02:21:28.781Z,10.50
2023-04-09T02:22:30.511Z,10.50
2023-04-09T02:23:33.473Z,10.50
2023-04-09T02:24:35.364Z,10.50
2023-04-09T02:25:37.212Z,10.50
2023-04-09T02:26:39.025Z,10.50
2023-04-09T02:27:41.042Z,10.50
2023-04-09T02:28:42.873Z,10.50
2023-04-09T02:29:45.329Z,10.50
2023-04-09T02:30:47.974Z,10.60
2023-04-09T02:31:53.236Z,10.60
2023-04-09T02:32:55.877Z,10.60
2023-04-09T02:33:57.637Z,10.60
2023-04-09T02:34:59.368Z,10.60
2023-04-09T02:36:01.159Z,10.60
2023-04-09T02:37:02.966Z,10.60
2023-04-09T02:38:04.904Z,10.60
2023-04-09T02:39:06.681Z,10.60
2023-04-09T02:40:09.189Z,10.60
2023-04-09T02:41:11.143Z,10.60
2023-04-09T02:42:12.973Z,10.60
2023-04-09T02:43:14.865Z,10.60
2023-04-09T02:44:16.671Z,10.60
2023-04-09T02:45:18.658Z,10.70
2023-04-09T02:46:20.501Z,10.70
2023-04-09T02:47:23.059Z,10.70
2023-04-09T02:48:25.073Z,10.60
2023-04-09T02:49:26.957Z,10.70
2023-04-09T02:50:29.507Z,10.60
2023-04-09T02:51:31.472Z,10.70
2023-04-09T02:52:33.581Z,10.70
2023-04-09T02:53:35.445Z,10.60
2023-04-09T02:54:37.384Z,10.60
2023-04-09T02:55:39.128Z,10.60
2023-04-09T02:56:41.161Z,10.60
2023-04-09T02:57:43.017Z,10.60
2023-04-09T02:58:45.385Z,10.70
2023-04-09T02:59:47.158Z,10.70
2023-04-09T03:00:49.224Z,10.60
2023-04-09T03:01:51.251Z,10.60
2023-04-09T03:02:53.747Z,10.60
2023-04-09T03:03:55.933Z,10.60
2023-04-09T03:04:57.901Z,10.70
2023-04-09T03:06:00.391Z,10.60
2023-04-09T03:07:02.299Z,10.70
2023-04-09T03:08:04.417Z,10.60
2023-04-09T03:09:06.380Z,10.70
2023-04-09T03:10:08.626Z,10.70
2023-04-09T03:11:10.493Z,10.60
2023-04-09T03:12:12.863Z,10.60
2023-04-09T03:13:14.848Z,10.60
2023-04-09T03:14:19.504Z,10.60
2023-04-09T03:15:21.568Z,10.60
2023-04-09T03:16:25.569Z,10.60
2023-04-09T03:17:31.902Z,10.60
2023-04-09T03:18:34.096Z,10.60
2023-04-09T03:19:35.880Z,10.70
2023-04-09T03:20:39.542Z,10.60
2023-04-09T03:21:43.544Z,10.70
2023-04-09T03:22:46.941Z,10.60
2023-04-09T03:24:07.161Z,10.70
2023-04-09T03:25:09.486Z,10.60
2023-04-09T03:26:11.941Z,10.60
2023-04-09T03:27:19.993Z,10.60
2023-04-09T03:28:25.903Z,10.60
2023-04-09T03:29:29.949Z,10.60
2023-04-09T03:30:32.392Z,10.60
2023-04-09T03:31:36.567Z,10.60
2023-04-09T03:32:38.670Z,10.60
2023-04-09T03:33:40.563Z,10.60
2023-04-09T03:34:43.154Z,10.60
2023-04-09T03:35:45.368Z,10.60
2023-04-09T03:36:47.837Z,10.60
2023-04-09T03:37:55.704Z,10.60
2023-04-09T03:38:58.449Z,10.60
2023-04-09T03:40:06.864Z,10.60
2023-04-09T03:41:08.861Z,10.50
2023-04-09T03:42:10.594Z,10.60
2023-04-09T03:43:20.800Z,10.60
2023-04-09T03:44:26.427Z,10.50
2023-04-09T03:45:42.088Z,10.50
2023-04-09T03:46:53.207Z,10.50
2023-04-09T03:47:57.443Z,10.50
2023-04-09T03:49:00.633Z,10.50
2023-04-09T03:50:11.503Z,10.50
2023-04-09T03:51:27.295Z,10.50
2023-04-09T03:52:33.430Z,10.50
2023-04-09T03:53:40.822Z,10.50
2023-04-09T03:54:43.742Z,10.50
2023-04-09T03:55:55.846Z,10.50
2023-04-09T03:57:03.686Z,10.50
2023-04-09T03:58:05.491Z,10.50
2023-04-09T03:59:09.520Z,10.50
2023-04-09T04:00:17.062Z,10.50
2023-04-09T04:01:37.679Z,10.50
2023-04-09T04:02:39.743Z,10.50
2023-04-09T04:03:43.586Z,10.50
2023-04-09T04:04:56.924Z,10.50
2023-04-09T04:06:04.271Z,10.50
2023-04-09T04:07:17.488Z,10.50
2023-04-09T04:08:23.747Z,10.50
2023-04-09T04:09:25.952Z,10.50
2023-04-09T04:10:31.607Z,10.50
2023-04-09T04:11:33.422Z,10.50
2023-04-09T04:12:35.360Z,10.50
2023-04-09T04:13:43.876Z,10.50
2023-04-09T04:14:46.252Z,10.40
2023-04-09T04:16:09.215Z,10.50
2023-04-09T04:17:12.645Z,10.40
2023-04-09T04:18:14.804Z,10.40
2023-04-09T04:19:23.401Z,10.40
2023-04-09T04:20:26.897Z,10.40
2023-04-09T04:21:37.460Z,10.40
2023-04-09T04:22:39.576Z,10.40
2023-04-09T04:23:41.808Z,10.40
2023-04-09T04:25:06.570Z,10.40
2023-04-09T04:26:11.470Z,10.40
2023-04-09T04:27:13.759Z,10.40
2023-04-09T04:28:15.677Z,10.40
2023-04-09T04:29:18.093Z,10.40
2023-04-09T04:30:28.653Z,10.40
2023-04-09T04:31:35.536Z,10.40
2023-04-09T04:32:37.700Z,10.40
2023-04-09T04:33:43.772Z,10.40
2023-04-09T04:34:50.263Z,10.40
2023-04-09T04:36:10.540Z,10.40
2023-04-09T04:37:16.532Z,10.40
2023-04-09T04:38:19.637Z,10.40
2023-04-09T04:39:21.495Z,10.40
2023-04-09T04:40:29.234Z,10.40
2023-04-09T04:41:35.587Z,10.40
2023-04-09T04:42:58.620Z,10.40
2023-04-09T04:44:00.937Z,10.40
2023-04-09T04:45:02.786Z,10.40
2023-04-09T04:46:17.566Z,10.40
2023-04-09T04:47:19.642Z,10.30
2023-04-09T04:48:22.224Z,10.40
2023-04-09T04:49:24.096Z,10.40
2023-04-09T04:50:27.317Z,10.40
2023-04-09T04:51:35.922Z,10.40
2023-04-09T04:52:43.368Z,10.40
2023-04-09T04:53:45.175Z,10.30
2023-04-09T04:54:48.918Z,10.40
2023-04-09T04:55:55.575Z,10.40
2023-04-09T04:57:01.734Z,10.40
2023-04-09T04:58:13.230Z,10.30
2023-04-09T04:59:26.464Z,10.30
2023-04-09T05:00:35.026Z,10.30
2023-04-09T05:01:38.158Z,10.30
2023-04-09T05:02:44.308Z,10.30
2023-04-09T05:03:59.224Z,10.30
2023-04-09T05:05:08.088Z,10.30
2023-04-09T05:06:14.961Z,10.30
2023-04-09T05:07:19.132Z,10.30
2023-04-09T05:08:25.977Z,10.30
2023-04-09T05:09:29.334Z,10.30
2023-04-09T05:10:35.674Z,10.30
2023-04-09T05:11:47.889Z,10.30
2023-04-09T05:12:54.216Z,10.30
2023-04-09T05:14:03.797Z,10.30
2023-04-09T05:15:06.936Z,10.30
2023-04-09T05:16:09.177Z,10.30
2023-04-09T05:17:11.896Z,10.30
2023-04-09T05:18:18.297Z,10.30
2023-04-09T05:19:20.108Z,10.30
2023-04-09T05:20:22.220Z,10.30
2023-04-09T05:21:32.430Z,10.30
2023-04-09T05:22:36.274Z,10.30
2023-04-09T05:23:38.765Z,10.30
2023-04-09T05:24:41.655Z,10.30
2023-04-09T05:25:45.060Z,10.30
2023-04-09T05:26:56.926Z,10.30
2023-04-09T05:27:59.459Z,10.30
2023-04-09T05:29:01.451Z,10.30
2023-04-09T05:30:03.627Z,10.30
2023-04-09T05:31:11.872Z,10.30
2023-04-09T05:32:19.352Z,10.30
2023-04-09T05:33:21.300Z,10.20
2023-04-09T05:34:23.520Z,10.30
2023-04-09T05:35:28.062Z,10.20
2023-04-09T05:36:29.848Z,10.20
2023-04-09T05:37:31.722Z,10.20
2023-04-09T05:38:34.263Z,10.20
2023-04-09T05:39:36.246Z,10.20
2023-04-09T05:40:38.924Z,10.20
2023-04-09T05:41:46.719Z,10.20
2023-04-09T05:43:03.863Z,10.20
2023-04-09T05:44:14.140Z,10.20
2023-04-09T05:45:16.028Z,10.20
2023-04-09T05:46:24.840Z,10.20
2023-04-09T05:47:26.689Z,10.30
2023-04-09T05:48:37.733Z,10.20
2023-04-09T05:49:39.664Z,10.30
2023-04-09T05:50:56.074Z,10.30
2023-04-09T05:52:01.892Z,10.20
2023-04-09T05:53:06.820Z,10.30
2023-04-09T05:54:13.881Z,10.30
2023-04-09T05:55:16.190Z,10.30
2023-04-09T05:56:23.436Z,10.30
2023-04-09T05:57:30.885Z,10.30
2023-04-09T05:58:37.385Z,10.30
2023-04-09T05:59:39.243Z,10.30
2023-04-09T06:00:41.186Z,10.30
2023-04-09T06:01:44.414Z,10.30
2023-04-09T06:02:46.480Z,10.30
2023-04-09T06:03:48.731Z,10.30
2023-04-09T06:04:53.103Z,10.30
2023-04-09T06:05:54.921Z,10.30
2023-04-09T06:07:00.483Z,10.30
2023-04-09T06:08:02.918Z,10.30
2023-04-09T06:09:05.006Z,10.30
2023-04-09T06:10:07.861Z,10.30
2023-04-09T06:11:10.523Z,10.30
2023-04-09T06:12:12.857Z,10.30
2023-04-09T06:13:14.885Z,10.30
2023-04-09T06:14:18.247Z,10.30
2023-04-09T06:15:20.735Z,10.30
2023-04-09T06:16:22.599Z,10.30
2023-04-09T06:17:24.973Z,10.30
2023-04-09T06:18:27.357Z,10.30
2023-04-09T06:19:29.332Z,10.40
2023-04-09T06:20:33.180Z,10.30
2023-04-09T06:21:35.202Z,10.30
2023-04-09T06:22:37.337Z,10.30
2023-04-09T06:23:39.966Z,10.40
2023-04-09T06:24:41.800Z,10.40
2023-04-09T06:25:45.080Z,10.40
2023-04-09T06:26:47.213Z,10.40
2023-04-09T06:27:49.185Z,10.50
2023-04-09T06:28:52.709Z,10.50
2023-04-09T06:29:54.569Z,10.50
2023-04-09T06:30:56.338Z,10.50
2023-04-09T06:31:58.160Z,10.50
2023-04-09T06:33:00.149Z,10.60
2023-04-09T06:34:02.443Z,10.60
2023-04-09T06:35:04.717Z,10.60
2023-04-09T06:36:07.119Z,10.60
2023-04-09T06:37:08.962Z,10.60
2023-04-09T06:38:10.912Z,10.70
2023-04-09T06:39:12.929Z,10.70
2023-04-09T06:40:14.911Z,10.70
2023-04-09T06:41:16.740Z,10.70
2023-04-09T06:42:18.458Z,10.70
2023-04-09T06:43:32.758Z,10.80
2023-04-09T06:44:35.051Z,10.80
2023-04-09T06:45:39.559Z,10.80
2023-04-09T06:46:42.665Z,10.80
2023-04-09T06:47:44.472Z,10.80
2023-04-09T06:48:46.919Z,10.80
2023-04-09T06:49:48.663Z,10.80
2023-04-09T06:50:50.495Z,10.90
2023-04-09T06:51:53.881Z,10.90
2023-04-09T06:52:56.609Z,10.90
2023-04-09T06:53:58.839Z,10.90
2023-04-09T06:55:01.273Z,11.00
2023-04-09T06:56:03.345Z,11.00
2023-04-09T06:57:07.057Z,11.00
2023-04-09T06:58:09.035Z,11.00
2023-04-09T06:59:11.595Z,11.10
2023-04-09T07:00:14.095Z,11.10
2023-04-09T07:01:17.421Z,11.10
2023-04-09T07:02:19.372Z,11.10
2023-04-09T07:03:21.550Z,11.20
2023-04-09T07:04:23.513Z,11.20
2023-04-09T07:05:26.365Z,11.20
2023-04-09T07:06:28.776Z,11.20
2023-04-09T07:07:30.777Z,11.20
2023-04-09T07:08:32.623Z,11.20
2023-04-09T07:09:34.395Z,11.20
2023-04-09T07:10:36.259Z,11.30
2023-04-09T07:11:38.089Z,11.30
2023-04-09T07:12:39.963Z,11.30
2023-04-09T07:13:41.673Z,11.30
2023-04-09T07:14:43.482Z,11.30
2023-04-09T07:15:45.274Z,11.30
2023-04-09T07:16:47.178Z,11.40
2023-04-09T07:17:49.266Z,11.40
2023-04-09T07:18:51.171Z,11.40
2023-04-09T07:19:54.380Z,11.40
2023-04-09T07:20:56.245Z,11.40
2023-04-09T07:21:59.431Z,11.40
2023-04-09T07:23:01.328Z,11.40
2023-04-09T07:24:03.496Z,11.40
2023-04-09T07:25:05.900Z,11.40
2023-04-09T07:26:07.763Z,11.40
2023-04-09T07:27:09.968Z,11.50
2023-04-09T07:28:11.771Z,11.50
2023-04-09T07:29:13.544Z,11.50
2023-04-09T07:30:15.722Z,11.60
2023-04-09T07:31:17.552Z,11.60
2023-04-09T07:32:19.657Z,11.70
2023-04-09T07:33:21.540Z,11.70
2023-04-09T07:34:23.453Z,11.80
2023-04-09T07:35:25.416Z,11.80
2023-04-09T07:36:28.026Z,11.90
2023-04-09T07:37:29.828Z,12.00
2023-04-09T07:38:31.604Z,12.00
2023-04-09T07:39:33.544Z,12.00
2023-04-09T07:40:36.825Z,12.00
2023-04-09T07:41:38.705Z,12.10
2023-04-09T07:42:40.698Z,12.20
2023-04-09T07:43:42.659Z,12.20
2023-04-09T07:44:45.523Z,12.20
2023-04-09T07:45:51.353Z,12.20
2023-04-09T07:46:53.434Z,12.20
2023-04-09T07:47:55.647Z,12.20
2023-04-09T07:48:57.499Z,12.20
2023-04-09T07:49:59.401Z,12.20
2023-04-09T07:51:01.148Z,12.20
2023-04-09T07:52:04.945Z,12.20
2023-04-09T07:53:06.862Z,12.30
2023-04-09T07:54:10.023Z,12.20
2023-04-09T07:55:11.878Z,12.20
2023-04-09T07:56:13.786Z,12.30
2023-04-09T07:57:15.831Z,12.30
2023-04-09T07:58:17.819Z,12.30
2023-04-09T07:59:19.832Z,12.30
2023-04-09T08:00:21.647Z,12.40
2023-04-09T08:01:24.733Z,12.30
2023-04-09T08:02:27.342Z,12.40
2023-04-09T08:03:29.564Z,12.40
2023-04-09T08:04:32.337Z,12.40
2023-04-09T08:05:35.334Z,12.40
2023-04-09T08:06:37.645Z,12.50
2023-04-09T08:07:39.701Z,12.50
2023-04-09T08:08:42.301Z,12.50
2023-04-09T08:09:49.195Z,12.50
2023-04-09T08:10:51.656Z,12.60
2023-04-09T08:11:53.537Z,12.60
2023-04-09T08:12:55.355Z,12.60
2023-04-09T08:13:57.483Z,12.70
2023-04-09T08:14:59.322Z,12.70
2023-04-09T08:16:02.240Z,12.80
2023-04-09T08:17:04.560Z,12.80
2023-04-09T08:18:07.173Z,12.80
2023-04-09T08:19:09.917Z,12.80
2023-04-09T08:20:12.778Z,12.90
2023-04-09T08:21:14.697Z,12.90
2023-04-09T08:22:16.484Z,13.00
2023-04-09T08:23:18.306Z,13.00
2023-04-09T08:24:20.275Z,13.00
2023-04-09T08:25:22.751Z,13.00
2023-04-09T08:26:24.547Z,13.00
2023-04-09T08:27:27.220Z,13.10
2023-04-09T08:28:29.042Z,13.10
2023-04-09T08:29:32.199Z,13.20
2023-04-09T08:30:34.501Z,13.20
2023-04-09T08:31:37.464Z,13.20
2023-04-09T08:32:39.396Z,13.30
2023-04-09T08:33:41.185Z,13.30
2023-04-09T08:34:43.164Z,13.40
2023-04-09T08:35:45.520Z,13.40
2023-04-09T08:36:47.693Z,13.40
2023-04-09T08:37:49.576Z,13.40
2023-04-09T08:38:53.191Z,13.50
2023-04-09T08:39:55.288Z,13.50
2023-04-09T08:40:57.067Z,13.50
2023-04-09T08:42:02.261Z,13.50
2023-04-09T08:43:08.934Z,13.60
2023-04-09T08:44:10.716Z,13.60
2023-04-09T08:45:13.405Z,13.60
2023-04-09T08:46:18.911Z,13.70
2023-04-09T08:47:21.057Z,13.80
2023-04-09T08:48:23.798Z,13.80
2023-04-09T08:49:25.731Z,13.90
2023-04-09T08:50:27.954Z,13.90
2023-04-09T08:51:29.827Z,14.00
2023-04-09T08:52:35.335Z,14.00
2023-04-09T08:53:39.222Z,14.00
2023-04-09T08:54:41.003Z,14.10
2023-04-09T08:55:45.857Z,14.10
2023-04-09T08:56:47.875Z,14.20
2023-04-09T08:57:49.773Z,14.30
2023-04-09T08:58:51.946Z,14.40
2023-04-09T08:59:54.110Z,14.60
2023-04-09T09:00:55.918Z,14.70
2023-04-09T09:02:16.115Z,14.90
2023-04-09T09:03:18.133Z,15.10
2023-04-09T09:04:20.464Z,15.20
2023-04-09T09:05:39.943Z,15.30
2023-04-09T09:06:42.422Z,15.40
2023-04-09T09:07:54.721Z,15.40
2023-04-09T09:09:10.311Z,15.40
2023-04-09T09:10:12.222Z,15.40
2023-04-09T09:11:27.085Z,15.40
2023-04-09T09:12:39.949Z,15.30
2023-04-09T09:13:44.328Z,15.20
2023-04-09T09:14:46.492Z,15.10
2023-04-09T09:15:52.788Z,15.10
2023-04-09T09:16:58.114Z,15.00
2023-04-09T09:18:01.750Z,15.00
2023-04-09T09:19:03.718Z,15.00
2023-04-09T09:20:20.844Z,15.40
2023-04-09T09:21:23.317Z,16.20
2023-04-09T09:22:26.050Z,17.00
2023-04-09T09:23:37.158Z,17.70
2023-04-09T09:24:50.319Z,18.40
2023-04-09T09:25:52.610Z,19.10
2023-04-09T09:26:55.278Z,19.80
2023-04-09T09:28:17.433Z,20.30
2023-04-09T09:29:20.131Z,20.70
2023-04-09T09:30:23.982Z,20.80
2023-04-09T09:31:26.532Z,21.00
2023-04-09T09:32:28.602Z,21.20
2023-04-09T09:33:33.816Z,21.40
2023-04-09T09:34:35.726Z,21.80
2023-04-09T09:35:49.529Z,22.00
2023-04-09T09:36:51.567Z,22.40
2023-04-09T09:38:06.581Z,22.50
2023-04-09T09:39:10.422Z,22.40
2023-04-09T09:40:27.738Z,22.10
2023-04-09T09:41:30.199Z,21.80
2023-04-09T09:42:33.088Z,21.40
2023-04-09T09:43:44.501Z,21.20
2023-04-09T09:44:48.085Z,21.00
2023-04-09T09:45:50.108Z,21.00
2023-04-09T09:46:52.030Z,21.20
2023-04-09T09:47:54.740Z,21.40
2023-04-09T09:48:59.835Z,21.70
2023-04-09T09:50:02.693Z,22.20
2023-04-09T09:51:11.981Z,22.60
2023-04-09T09:52:14.891Z,23.00
2023-04-09T09:53:22.741Z,23.30
2023-04-09T09:54:28.704Z,23.70
2023-04-09T09:55:37.923Z,24.20
2023-04-09T09:56:43.256Z,24.70
2023-04-09T09:57:48.298Z,24.90
2023-04-09T09:59:01.699Z,25.00
2023-04-09T10:00:04.543Z,25.20
2023-04-09T10:01:17.566Z,25.40
2023-04-09T10:02:22.148Z,25.30
2023-04-09T10:03:27.776Z,25.20
2023-04-09T10:04:33.264Z,25.30
2023-04-09T10:05:36.949Z,25.40
2023-04-09T10:06:41.598Z,25.60
2023-04-09T10:07:45.349Z,25.90
2023-04-09T10:08:49.520Z,26.20
2023-04-09T10:09:56.285Z,26.50
2023-04-09T10:10:58.183Z,26.70
2023-04-09T10:12:03.018Z,26.90
2023-04-09T10:13:07.719Z,27.00
2023-04-09T10:14:10.079Z,27.20
2023-04-09T10:15:13.473Z,27.30
2023-04-09T10:16:16.864Z,27.60
2023-04-09T10:17:19.670Z,27.70
2023-04-09T10:18:21.519Z,28.00
2023-04-09T10:19:24.028Z,28.30
2023-04-09T10:20:38.512Z,28.60
2023-04-09T10:21:54.007Z,28.80
2023-04-09T10:22:57.493Z,29.00
2023-04-09T10:24:00.250Z,29.30
2023-04-09T10:25:04.586Z,29.40
2023-04-09T10:26:06.993Z,29.60
2023-04-09T10:27:15.650Z,29.70
2023-04-09T10:28:18.875Z,29.80
2023-04-09T10:29:27.999Z,30.10
2023-04-09T10:30:36.888Z,30.40
2023-04-09T10:32:05.936Z,30.70
2023-04-09T10:33:16.326Z,30.70
2023-04-09T10:34:21.696Z,30.90
2023-04-09T10:35:26.740Z,31.00
2023-04-09T10:36:34.070Z,31.10
2023-04-09T10:37:36.153Z,31.10
2023-04-09T10:38:41.536Z,31.20
2023-04-09T10:39:47.707Z,31.30
2023-04-09T10:40:51.676Z,31.50
2023-04-09T10:41:55.076Z,31.80
2023-04-09T10:42:58.139Z,32.10
2023-04-09T10:43:59.891Z,32.20
2023-04-09T10:45:09.926Z,32.00
2023-04-09T10:46:34.106Z,31.60
2023-04-09T10:47:38.271Z,31.40
2023-04-09T10:48:40.403Z,31.20
2023-04-09T10:49:42.673Z,31.10
2023-04-09T10:50:45.128Z,30.80
2023-04-09T10:52:03.674Z,30.50
2023-04-09T10:53:06.322Z,30.20
2023-04-09T10:54:34.177Z,30.20
2023-04-09T10:55:41.643Z,29.90
2023-04-09T10:57:10.054Z,29.30
2023-04-09T10:58:13.596Z,28.50
2023-04-09T10:59:15.821Z,27.80
2023-04-09T11:00:18.906Z,27.10
2023-04-09T11:01:24.265Z,26.70
2023-04-09T11:02:51.815Z,26.60
2023-04-09T11:04:16.531Z,26.40
2023-04-09T11:05:19.955Z,25.90
2023-04-09T11:06:22.497Z,25.70
2023-04-09T11:07:25.071Z,26.00
2023-04-09T11:08:32.083Z,26.40
2023-04-09T11:09:36.954Z,26.90
2023-04-09T11:10:41.732Z,27.30
2023-04-09T11:11:43.572Z,27.70
2023-04-09T11:12:48.054Z,28.30
2023-04-09T11:13:49.920Z,28.50
2023-04-09T11:14:52.891Z,28.30
2023-04-09T11:15:56.477Z,27.70
2023-04-09T11:16:58.384Z,27.00
2023-04-09T11:18:02.384Z,26.30
2023-04-09T11:19:04.576Z,25.60
2023-04-09T11:20:07.328Z,25.10
2023-04-09T11:21:10.629Z,25.00
2023-04-09T11:22:13.179Z,24.90
2023-04-09T11:23:16.483Z,24.70
2023-04-09T11:24:19.356Z,24.70
2023-04-09T11:25:33.298Z,24.80
2023-04-09T11:26:36.346Z,25.00
2023-04-09T11:27:38.987Z,25.10
2023-04-09T11:28:43.555Z,25.20
2023-04-09T11:29:45.665Z,25.10
2023-04-09T11:30:47.783Z,24.90
2023-04-09T11:31:50.131Z,24.40
2023-04-09T11:32:52.286Z,24.00
2023-04-09T11:33:54.158Z,23.40
2023-04-09T11:34:57.186Z,22.90
2023-04-09T11:35:59.006Z,22.40
2023-04-09T11:37:05.517Z,22.00
2023-04-09T11:38:11.247Z,21.80
2023-04-09T11:39:13.104Z,21.50
2023-04-09T11:40:19.610Z,21.20
2023-04-09T11:41:38.916Z,20.90
2023-04-09T11:42:41.104Z,20.70
2023-04-09T11:43:42.940Z,20.60
2023-04-09T11:44:47.464Z,20.50
2023-04-09T11:45:49.599Z,20.50
2023-04-09T11:46:51.999Z,20.50
2023-04-09T11:47:54.393Z,20.50
2023-04-09T11:48:56.645Z,20.50
2023-04-09T11:49:58.474Z,20.40
2023-04-09T11:51:00.712Z,20.30
2023-04-09T11:52:04.057Z,20.30
2023-04-09T11:53:21.857Z,20.20
2023-04-09T11:54:23.738Z,20.00
2023-04-09T11:55:29.660Z,20.00
2023-04-09T11:56:32.528Z,19.90
2023-04-09T11:57:44.793Z,19.90
2023-04-09T11:58:47.994Z,19.90
2023-04-09T11:59:49.835Z,19.80
2023-04-09T12:00:56.413Z,19.80
2023-04-09T12:02:01.153Z,19.70
2023-04-09T12:03:05.497Z,19.60
2023-04-09T12:04:08.071Z,19.60
2023-04-09T12:05:12.508Z,19.50
2023-04-09T12:06:14.369Z,19.40
2023-04-09T12:07:17.440Z,19.40
2023-04-09T12:08:26.297Z,19.30
2023-04-09T12:09:28.385Z,19.20
2023-04-09T12:10:34.750Z,19.10
2023-04-09T12:11:37.254Z,19.10
2023-04-09T12:12:43.963Z,19.00
2023-04-09T12:13:46.880Z,18.90
2023-04-09T12:14:52.966Z,18.80
2023-04-09T12:15:57.437Z,18.70
2023-04-09T12:17:01.140Z,18.50
2023-04-09T12:18:03.790Z,18.40
2023-04-09T12:19:09.392Z,18.30
2023-04-09T12:20:11.587Z,18.30
2023-04-09T12:21:13.434Z,18.20
2023-04-09T12:22:15.391Z,18.20
2023-04-09T12:23:17.199Z,18.20
2023-04-09T12:24:20.376Z,18.10
2023-04-09T12:25:22.340Z,18.10
2023-04-09T12:26:24.082Z,18.00
2023-04-09T12:27:26.128Z,18.00
2023-04-09T12:28:28.460Z,17.90
2023-04-09T12:29:30.635Z,17.90
2023-04-09T12:30:33.461Z,17.90
2023-04-09T12:31:36.157Z,17.90
2023-04-09T12:32:38.877Z,17.80
2023-04-09T12:33:41.107Z,17.80
2023-04-09T12:34:43.407Z,17.80
2023-04-09T12:35:45.285Z,17.80
2023-04-09T12:36:47.137Z,17.90
2023-04-09T12:37:50.005Z,17.90
2023-04-09T12:38:53.458Z,17.90
2023-04-09T12:39:55.430Z,17.90
2023-04-09T12:40:57.280Z,17.80
2023-04-09T12:41:59.767Z,17.80
2023-04-09T12:43:02.433Z,17.70
2023-04-09T12:44:05.091Z,17.70
2023-04-09T12:45:10.151Z,17.70
2023-04-09T12:46:12.181Z,17.60
2023-04-09T12:47:14.611Z,17.60
2023-04-09T12:48:16.594Z,17.60
2023-04-09T12:49:18.478Z,17.50
2023-04-09T12:50:20.448Z,17.50
2023-04-09T12:51:22.306Z,17.50
2023-04-09T12:52:24.895Z,17.50
2023-04-09T12:53:26.823Z,17.50
2023-04-09T12:54:28.604Z,17.50
2023-04-09T12:55:30.478Z,17.40
2023-04-09T12:56:33.144Z,17.40
2023-04-09T12:57:35.357Z,17.40
2023-04-09T12:58:38.033Z,17.40
2023-04-09T12:59:39.833Z,17.40
2023-04-09T13:00:42.181Z,17.40
2023-04-09T13:01:44.130Z,17.40
2023-04-09T13:02:47.370Z,17.40
2023-04-09T13:03:49.365Z,17.50
2023-04-09T13:04:52.935Z,17.50
2023-04-09T13:05:54.868Z,17.50
2023-04-09T13:06:57.419Z,17.50
2023-04-09T13:08:00.163Z,17.50
2023-04-09T13:09:01.940Z,17.50
2023-04-09T13:10:03.899Z,17.50
2023-04-09T13:11:05.938Z,17.50
2023-04-09T13:12:07.799Z,17.50
2023-04-09T13:13:12.913Z,17.60
2023-04-09T13:14:15.124Z,17.60
2023-04-09T13:15:17.118Z,17.60
2023-04-09T13:16:19.498Z,17.60
2023-04-09T13:17:24.780Z,17.60
2023-04-09T13:18:26.720Z,17.60
2023-04-09T13:19:28.602Z,17.50
2023-04-09T13:20:31.155Z,17.50
2023-04-09T13:21:33.849Z,17.50
2023-04-09T13:22:36.987Z,17.50
2023-04-09T13:23:38.734Z,17.50
2023-04-09T13:24:40.839Z,17.50
2023-04-09T13:25:42.694Z,17.50
2023-04-09T13:26:44.741Z,17.50
2023-04-09T13:27:46.658Z,17.50
2023-04-09T13:28:48.328Z,17.50
2023-04-09T13:29:50.084Z,17.50
2023-04-09T13:30:52.782Z,17.50
2023-04-09T13:31:55.844Z,17.50
2023-04-09T13:32:57.649Z,17.50
2023-04-09T13:33:59.542Z,17.50
2023-04-09T13:35:02.453Z,17.50
2023-04-09T13:36:06.168Z,17.50
2023-04-09T13:37:08.336Z,17.40
2023-04-09T13:38:11.383Z,17.40
2023-04-09T13:39:13.148Z,17.30
2023-04-09T13:40:16.300Z,17.30
2023-04-09T13:41:18.102Z,17.40
2023-04-09T13:42:20.912Z,17.40
2023-04-09T13:43:27.906Z,17.40
2023-04-09T13:44:29.685Z,17.40
2023-04-09T13:45:31.490Z,17.40
2023-04-09T13:46:33.512Z,17.30
2023-04-09T13:47:35.322Z,17.30
2023-04-09T13:48:37.137Z,17.30
2023-04-09T13:49:42.947Z,17.20
2023-04-09T13:50:45.326Z,17.20
2023-04-09T13:51:47.315Z,17.10